Nearby METAR Reports

 

KTOP - Billard Municipal Airport, Topeka, Kansas, USA
Updated: 01/26/2020 10:53am
Clear
Clear
 Wind from NNW
Wind: NNW 6 mph , 9 km/h
Temperature: 37°F , 3°C
Wind Chill: 32°F , 0°C
Dew Point: 32°F , 0°C
Humidity: 81%
Barometer: 1016.9 hPa
Clouds: Clear
Visibility: 10 miles , 16 km
2020/01/26 16:53 KTOP 261653Z 34005KT 10SM CLR 03/00 A3003 RMK AO2 SLP175 T00330000
KFOE - Forbes Field Airport, Topeka, Kansas, USA
Updated: 01/26/2020 10:53am
Clear
Clear
 Wind from NW
Wind: NW 8 mph , 13 km/h
Temperature: 37°F , 3°C
Wind Chill: 31°F , -1°C
Dew Point: 32°F , 0°C
Humidity: 81%
Barometer: 1016.6 hPa
Clouds: Clear
Visibility: 10 miles , 16 km
2020/01/26 16:53 KFOE 261653Z 31007KT 10SM CLR 03/00 A3002 RMK AO2 SLP175 T00330000